createdAt,value
2022-12-24T00:00:14.005Z,96280.34
2022-12-24T00:02:41.638Z,96282.56
2022-12-24T00:05:09.844Z,96290.69
2022-12-24T00:07:37.355Z,96302.41
2022-12-24T00:10:05.991Z,96315.22
2022-12-24T00:12:33.731Z,96319.94
2022-12-24T00:15:02.643Z,96313.50
2022-12-24T00:17:30.224Z,96315.22
2022-12-24T00:19:57.759Z,96312.78
2022-12-24T00:22:25.325Z,96302.41
2022-12-24T00:24:52.837Z,96308.94
2022-12-24T00:27:20.359Z,96309.50
2022-12-24T00:29:47.851Z,96308.75
2022-12-24T00:32:16.732Z,96301.06
2022-12-24T00:34:44.957Z,96300.00
2022-12-24T00:37:12.470Z,96308.56
2022-12-24T00:39:40.014Z,96303.88
2022-12-24T00:42:07.520Z,96308.72
2022-12-24T00:44:35.084Z,96311.97
2022-12-24T00:47:05.522Z,96326.63
2022-12-24T00:49:39.387Z,96304.16
2022-12-24T00:52:06.890Z,96328.03
2022-12-24T00:54:34.404Z,96322.53
2022-12-24T00:57:01.914Z,96331.69
2022-12-24T00:59:29.459Z,96328.56
2022-12-24T01:01:57.140Z,96339.72
2022-12-24T01:04:42.591Z,96350.63
2022-12-24T01:07:11.472Z,96347.09
2022-12-24T01:09:39.379Z,96352.13
2022-12-24T01:12:07.005Z,96353.09
2022-12-24T01:14:34.553Z,96345.47
2022-12-24T01:17:02.069Z,96351.13
2022-12-24T01:19:29.834Z,96355.53
2022-12-24T01:21:57.347Z,96357.81
2022-12-24T01:24:26.329Z,96360.38
2022-12-24T01:26:53.869Z,96358.28
2022-12-24T01:29:21.472Z,96368.28
2022-12-24T01:31:49.007Z,96369.84
2022-12-24T01:34:16.564Z,96369.22
2022-12-24T01:36:44.069Z,96385.50
2022-12-24T01:39:11.599Z,96384.66
2022-12-24T01:41:58.173Z,96389.31
2022-12-24T01:44:35.214Z,96396.50
2022-12-24T01:47:08.592Z,96396.56
2022-12-24T01:49:36.961Z,96393.91
2022-12-24T01:52:06.784Z,96411.13
2022-12-24T01:54:36.561Z,96413.59
2022-12-24T01:57:08.631Z,96416.03
2022-12-24T01:59:37.885Z,96429.81
2022-12-24T02:02:05.744Z,96420.72
2022-12-24T02:04:38.287Z,96418.97
2022-12-24T02:07:05.836Z,96423.09
2022-12-24T02:09:34.345Z,96423.22
2022-12-24T02:12:02.105Z,96414.44
2022-12-24T02:14:32.709Z,96418.06
2022-12-24T02:17:03.421Z,96422.72
2022-12-24T02:20:20.909Z,96422.78
2022-12-24T02:23:04.247Z,96434.53
2022-12-24T02:25:46.848Z,96431.44
2022-12-24T02:28:17.951Z,96431.25
2022-12-24T02:30:49.871Z,96442.81
2022-12-24T02:33:24.222Z,96446.25
2022-12-24T02:36:00.534Z,96441.97
2022-12-24T02:38:30.660Z,96455.81
2022-12-24T02:41:01.433Z,96448.09
2022-12-24T02:43:33.467Z,96450.00
2022-12-24T02:46:06.388Z,96449.63
2022-12-24T02:48:34.613Z,96459.66
2022-12-24T02:51:08.781Z,96464.00
2022-12-24T02:53:36.645Z,96469.38
2022-12-24T02:56:17.555Z,96464.91
2022-12-24T02:58:55.758Z,96463.38
2022-12-24T03:01:33.273Z,96465.38
2022-12-24T03:04:08.371Z,96475.59
2022-12-24T03:06:41.974Z,96481.97
2022-12-24T03:09:15.448Z,96479.19
2022-12-24T03:11:46.930Z,96487.63
2022-12-24T03:14:15.551Z,96493.72
2022-12-24T03:16:45.246Z,96493.59
2022-12-24T03:19:12.916Z,96485.88
2022-12-24T03:21:42.524Z,96487.69
2022-12-24T03:24:11.008Z,96499.50
2022-12-24T03:26:39.798Z,96510.16
2022-12-24T03:29:08.176Z,96506.22
2022-12-24T03:31:45.057Z,96507.59
2022-12-24T03:34:13.152Z,96507.50
2022-12-24T03:36:40.677Z,96503.88
2022-12-24T03:39:08.323Z,96515.69
2022-12-24T03:41:35.876Z,96515.13
2022-12-24T03:44:03.429Z,96531.78
2022-12-24T03:46:30.933Z,96529.69
2022-12-24T03:49:00.228Z,96526.78
2022-12-24T03:51:28.404Z,96532.56
2022-12-24T03:53:58.330Z,96521.06
2022-12-24T03:56:26.197Z,96520.22
2022-12-24T03:58:53.954Z,96524.50
2022-12-24T04:01:21.678Z,96531.78
2022-12-24T04:03:49.271Z,96528.53
2022-12-24T04:06:18.897Z,96538.16
2022-12-24T04:08:46.736Z,96533.03
2022-12-24T04:11:15.831Z,96526.81
2022-12-24T04:13:43.596Z,96523.91
2022-12-24T04:16:13.171Z,96545.88
2022-12-24T04:18:41.802Z,96553.13
2022-12-24T04:21:09.885Z,96556.94
2022-12-24T04:23:40.157Z,96568.38
2022-12-24T04:26:09.552Z,96562.47
2022-12-24T04:28:37.735Z,96570.38
2022-12-24T04:31:07.055Z,96564.84
2022-12-24T04:33:35.126Z,96570.59
2022-12-24T04:36:03.744Z,96577.84
2022-12-24T04:38:32.073Z,96573.81
2022-12-24T04:41:02.146Z,96575.16
2022-12-24T04:43:29.970Z,96572.88
2022-12-24T04:45:57.610Z,96578.91
2022-12-24T04:48:25.181Z,96575.72
2022-12-24T04:50:52.780Z,96572.81
2022-12-24T04:53:20.294Z,96590.50
2022-12-24T04:55:47.914Z,96580.38
2022-12-24T04:58:16.785Z,96591.91
2022-12-24T05:00:44.323Z,96601.78
2022-12-24T05:03:11.934Z,96592.38
2022-12-24T05:05:39.936Z,96606.31
2022-12-24T05:08:08.081Z,96612.09
2022-12-24T05:10:35.661Z,96613.72
2022-12-24T05:13:03.446Z,96626.13
2022-12-24T05:15:32.295Z,96624.78
2022-12-24T05:17:59.806Z,96625.78
2022-12-24T05:20:27.361Z,96627.66
2022-12-24T05:23:12.646Z,96628.38
2022-12-24T05:25:58.259Z,96638.31
2022-12-24T05:28:25.941Z,96647.25
2022-12-24T05:30:54.902Z,96639.06
2022-12-24T05:33:22.505Z,96650.44
2022-12-24T05:35:52.383Z,96655.09
2022-12-24T05:38:20.069Z,96664.50
2022-12-24T05:40:47.993Z,96660.56
2022-12-24T05:43:15.563Z,96648.19
2022-12-24T05:45:43.309Z,96664.03
2022-12-24T05:48:12.383Z,96667.31
2022-12-24T05:50:40.699Z,96666.88
2022-12-24T05:53:09.059Z,96667.78
2022-12-24T05:55:36.558Z,96682.13
2022-12-24T05:58:04.083Z,96684.78
2022-12-24T06:00:31.595Z,96696.97
2022-12-24T06:02:59.213Z,96692.03
2022-12-24T06:05:28.171Z,96706.03
2022-12-24T06:07:55.722Z,96695.84
2022-12-24T06:10:23.300Z,96704.22
2022-12-24T06:12:50.895Z,96712.97
2022-12-24T06:15:23.644Z,96718.69
2022-12-24T06:17:51.785Z,96709.69
2022-12-24T06:20:19.380Z,96708.41
2022-12-24T06:22:48.242Z,96704.47
2022-12-24T06:25:15.859Z,96701.50
2022-12-24T06:27:43.607Z,96712.38
2022-12-24T06:30:11.940Z,96711.03
2022-12-24T06:32:39.492Z,96707.16
2022-12-24T06:35:07.397Z,96706.00
2022-12-24T06:37:34.896Z,96703.19
2022-12-24T06:40:04.042Z,96696.97
2022-12-24T06:42:31.550Z,96702.06
2022-12-24T06:45:03.865Z,96694.97
2022-12-24T06:47:35.597Z,96702.53
2022-12-24T06:50:03.250Z,96710.75
2022-12-24T06:52:30.787Z,96713.06
2022-12-24T06:54:58.344Z,96718.31
2022-12-24T06:57:27.213Z,96722.13
2022-12-24T06:59:54.749Z,96728.06
2022-12-24T07:02:22.411Z,96739.25
2022-12-24T07:04:50.002Z,96733.00
2022-12-24T07:07:17.546Z,96750.25
2022-12-24T07:09:45.156Z,96748.41
2022-12-24T07:12:12.665Z,96748.66
2022-12-24T07:14:41.632Z,96750.88
2022-12-24T07:17:10.273Z,96754.50
2022-12-24T07:19:37.825Z,96758.31
2022-12-24T07:22:10.250Z,96756.47
2022-12-24T07:24:41.100Z,96765.00
2022-12-24T07:27:08.856Z,96755.47
2022-12-24T07:29:36.357Z,96765.16
2022-12-24T07:32:05.792Z,96759.59
2022-12-24T07:34:33.400Z,96774.41
2022-12-24T07:37:00.906Z,96779.00
2022-12-24T07:39:28.501Z,96786.59
2022-12-24T07:41:56.004Z,96783.63
2022-12-24T07:44:23.651Z,96794.16
2022-12-24T07:46:51.238Z,96792.50
2022-12-24T07:49:20.173Z,96799.91
2022-12-24T07:51:47.723Z,96803.09
2022-12-24T07:54:15.447Z,96802.25
2022-12-24T07:56:43.699Z,96804.38
2022-12-24T07:59:13.452Z,96811.13
2022-12-24T08:01:41.512Z,96814.91
2022-12-24T08:04:09.282Z,96809.47
2022-12-24T08:06:38.332Z,96808.81
2022-12-24T08:09:06.177Z,96810.69
2022-12-24T08:11:33.699Z,96809.38
2022-12-24T08:14:01.221Z,96824.53
2022-12-24T08:16:28.818Z,96820.56
2022-12-24T08:18:56.389Z,96817.28
2022-12-24T08:21:24.125Z,96815.28
2022-12-24T08:23:53.045Z,96820.72
2022-12-24T08:26:20.553Z,96805.19
2022-12-24T08:28:48.077Z,96814.09
2022-12-24T08:31:15.929Z,96817.50
2022-12-24T08:33:43.483Z,96821.28
2022-12-24T08:36:11.240Z,96830.09
2022-12-24T08:38:38.781Z,96833.53
2022-12-24T08:41:07.715Z,96829.41
2022-12-24T08:43:35.531Z,96837.72
2022-12-24T08:46:04.601Z,96836.91
2022-12-24T08:48:32.439Z,96841.84
2022-12-24T08:51:00.147Z,96851.38
2022-12-24T08:53:27.697Z,96853.97
2022-12-24T08:56:02.871Z,96864.72
2022-12-24T08:58:32.151Z,96868.34
2022-12-24T09:01:00.285Z,96870.78
2022-12-24T09:03:28.515Z,96867.44
2022-12-24T09:05:56.612Z,96864.47
2022-12-24T09:08:24.140Z,96875.34
2022-12-24T09:10:51.634Z,96879.44
2022-12-24T09:13:19.232Z,96887.19
2022-12-24T09:15:55.153Z,96882.41
2022-12-24T09:18:22.845Z,96887.69
2022-12-24T09:20:56.833Z,96892.81
2022-12-24T09:23:24.971Z,96887.00
2022-12-24T09:25:52.494Z,96896.53
2022-12-24T09:28:20.097Z,96891.41
2022-12-24T09:30:57.936Z,96891.88
2022-12-24T09:33:25.467Z,96886.13
2022-12-24T09:35:53.318Z,96890.69
2022-12-24T09:38:21.523Z,96886.84
2022-12-24T09:40:50.348Z,96886.97
2022-12-24T09:43:20.396Z,96889.53
2022-12-24T09:46:02.683Z,96898.91
2022-12-24T09:48:33.198Z,96902.69
2022-12-24T09:51:04.657Z,96885.97
2022-12-24T09:53:37.892Z,96895.41
2022-12-24T09:56:11.167Z,96897.16
2022-12-24T09:58:42.288Z,96899.59
2022-12-24T10:01:13.347Z,96896.28
2022-12-24T10:03:42.424Z,96895.69
2022-12-24T10:06:13.271Z,96890.47
2022-12-24T10:08:49.433Z,96894.63
2022-12-24T10:11:21.203Z,96901.69
2022-12-24T10:14:04.991Z,96887.91
2022-12-24T10:16:38.411Z,96896.03
2022-12-24T10:19:15.479Z,96905.66
2022-12-24T10:21:49.542Z,96895.59
2022-12-24T10:24:22.229Z,96893.16
2022-12-24T10:26:51.965Z,96897.44
2022-12-24T10:29:22.096Z,96897.25
2022-12-24T10:31:56.745Z,96913.72
2022-12-24T10:34:29.163Z,96901.81
2022-12-24T10:36:57.480Z,96911.06
2022-12-24T10:39:27.025Z,96905.34
2022-12-24T10:41:57.763Z,96902.00
2022-12-24T10:44:27.165Z,96912.34
2022-12-24T10:46:54.889Z,96910.75
2022-12-24T10:49:31.173Z,96921.88
2022-12-24T10:52:01.363Z,96923.44
2022-12-24T10:54:34.397Z,96908.53
2022-12-24T10:57:03.131Z,96910.81
2022-12-24T10:59:32.400Z,96903.38
2022-12-24T11:02:01.171Z,96904.13
2022-12-24T11:04:31.632Z,96899.59
2022-12-24T11:07:01.060Z,96887.72
2022-12-24T11:09:30.468Z,96893.28
2022-12-24T11:12:02.548Z,96890.66
2022-12-24T11:14:36.284Z,96896.03
2022-12-24T11:17:04.245Z,96897.94
2022-12-24T11:19:35.452Z,96901.50
2022-12-24T11:22:05.487Z,96902.50
2022-12-24T11:24:34.662Z,96908.63
2022-12-24T11:27:31.682Z,96907.59
2022-12-24T11:30:21.608Z,96908.63
2022-12-24T11:32:50.334Z,96905.06
2022-12-24T11:35:22.213Z,96914.25
2022-12-24T11:37:50.260Z,96906.69
2022-12-24T11:40:21.963Z,96893.47
2022-12-24T11:42:53.299Z,96883.66
2022-12-24T11:45:24.277Z,96885.47
2022-12-24T11:47:53.576Z,96884.66
2022-12-24T11:50:26.013Z,96886.09
2022-12-24T11:52:58.039Z,96888.84
2022-12-24T11:55:31.515Z,96881.53
2022-12-24T11:58:01.789Z,96883.50
2022-12-24T12:00:29.710Z,96872.56
2022-12-24T12:02:58.464Z,96871.69
2022-12-24T12:05:29.682Z,96874.88
2022-12-24T12:07:59.998Z,96878.25
2022-12-24T12:10:31.174Z,96875.22
2022-12-24T12:13:01.576Z,96874.53
2022-12-24T12:15:30.984Z,96881.09
2022-12-24T12:18:04.582Z,96869.28
2022-12-24T12:20:35.809Z,96880.06
2022-12-24T12:23:07.039Z,96885.75
2022-12-24T12:25:39.024Z,96876.47
2022-12-24T12:28:09.896Z,96880.94
2022-12-24T12:30:38.432Z,96886.31
2022-12-24T12:33:10.533Z,96887.53
2022-12-24T12:35:40.931Z,96890.06
2022-12-24T12:38:12.529Z,96901.97
2022-12-24T12:40:51.718Z,96892.22
2022-12-24T12:43:29.813Z,96897.22
2022-12-24T12:45:59.939Z,96896.63
2022-12-24T12:48:42.188Z,96895.28
2022-12-24T12:51:16.685Z,96897.38
2022-12-24T12:53:55.081Z,96888.88
2022-12-24T12:56:28.413Z,96884.66
2022-12-24T12:59:00.139Z,96891.66
2022-12-24T13:01:33.214Z,96904.09
2022-12-24T13:04:21.394Z,96899.56
2022-12-24T13:07:09.993Z,96911.44
2022-12-24T13:10:03.493Z,96900.25
2022-12-24T13:12:43.816Z,96901.78
2022-12-24T13:15:41.867Z,96917.50
2022-12-24T13:18:21.401Z,96919.44
2022-12-24T13:20:51.349Z,96917.16
2022-12-24T13:23:22.601Z,96914.50
2022-12-24T13:25:51.704Z,96919.59
2022-12-24T13:28:37.020Z,96925.47
2022-12-24T13:31:29.701Z,96927.19
2022-12-24T13:34:02.585Z,96932.13
2022-12-24T13:37:18.044Z,96938.34
2022-12-24T13:40:15.914Z,96942.63
2022-12-24T13:42:57.084Z,96939.34
2022-12-24T13:45:43.651Z,96936.88
2022-12-24T13:48:30.184Z,96930.50
2022-12-24T13:50:59.787Z,96941.72
2022-12-24T13:53:30.093Z,96942.00
2022-12-24T13:56:03.418Z,96941.88
2022-12-24T14:01:01.398Z,96946.81
2022-12-24T14:03:31.416Z,96949.00
2022-12-24T14:06:00.781Z,96949.28
2022-12-24T14:08:31.741Z,96953.09
2022-12-24T14:11:14.081Z,96953.44
2022-12-24T14:13:56.593Z,96955.38
2022-12-24T14:16:25.239Z,96955.53
2022-12-24T14:19:00.010Z,96963.56
2022-12-24T14:21:30.991Z,96964.63
2022-12-24T14:24:00.524Z,96962.63
2022-12-24T14:26:32.151Z,96966.56
2022-12-24T14:29:03.415Z,96978.84
2022-12-24T14:31:30.984Z,96969.59
2022-12-24T14:34:08.845Z,96966.69
2022-12-24T14:36:36.833Z,96970.03
2022-12-24T14:39:07.082Z,96977.47
2022-12-24T14:41:43.821Z,96972.06
2022-12-24T14:44:19.556Z,96979.38
2022-12-24T14:46:50.035Z,96985.34
2022-12-24T14:49:28.767Z,96992.72
2022-12-24T14:52:03.919Z,96995.38
2022-12-24T14:54:36.649Z,96996.47
2022-12-24T14:57:22.971Z,97009.03
2022-12-24T14:59:52.535Z,97012.59
2022-12-24T15:02:41.819Z,97014.47
2022-12-24T15:05:15.339Z,97010.44
2022-12-24T15:07:47.789Z,97016.25
2022-12-24T15:10:36.715Z,97029.16
2022-12-24T15:13:07.595Z,97021.09
2022-12-24T15:15:35.526Z,97021.28
2022-12-24T15:18:04.576Z,97027.75
2022-12-24T15:20:32.636Z,97018.84
2022-12-24T15:23:00.290Z,97030.22
2022-12-24T15:25:29.843Z,97032.38
2022-12-24T15:27:57.911Z,97028.22
2022-12-24T15:30:28.657Z,97024.59
2022-12-24T15:32:58.903Z,97026.72
2022-12-24T15:35:45.766Z,97029.06
2022-12-24T15:38:27.266Z,97029.75
2022-12-24T15:40:55.756Z,97033.56
2022-12-24T15:43:23.490Z,97028.13
2022-12-24T15:45:52.482Z,97045.88
2022-12-24T15:48:23.610Z,97050.44
2022-12-24T15:50:53.079Z,97049.31
2022-12-24T15:53:24.996Z,97049.78
2022-12-24T15:56:07.611Z,97051.06
2022-12-24T15:58:36.863Z,97043.44
2022-12-24T16:01:29.067Z,97055.59
2022-12-24T16:04:00.940Z,97063.19
2022-12-24T16:06:29.424Z,97057.44
2022-12-24T16:08:59.671Z,97058.66
2022-12-24T16:11:34.986Z,97060.91
2022-12-24T16:14:10.232Z,97067.16
2022-12-24T16:16:40.655Z,97071.59
2022-12-24T16:19:08.937Z,97067.75
2022-12-24T16:21:38.181Z,97074.38
2022-12-24T16:24:08.611Z,97084.66
2022-12-24T16:26:38.100Z,97094.47
2022-12-24T16:29:05.794Z,97092.25
2022-12-24T16:31:35.323Z,97118.31
2022-12-24T16:34:05.037Z,97122.53
2022-12-24T16:36:33.285Z,97115.44
2022-12-24T16:39:18.728Z,97125.09
2022-12-24T16:42:03.231Z,97125.53
2022-12-24T16:44:30.771Z,97126.31
2022-12-24T16:47:00.169Z,97124.50
2022-12-24T16:49:29.409Z,97131.22
2022-12-24T16:51:56.961Z,97133.00
2022-12-24T16:54:24.493Z,97123.41
2022-12-24T16:56:52.308Z,97142.16
2022-12-24T16:59:23.269Z,97139.84
2022-12-24T17:01:51.578Z,97157.16
2022-12-24T17:04:19.782Z,97162.56
2022-12-24T17:06:49.594Z,97162.84
2022-12-24T17:09:17.737Z,97163.16
2022-12-24T17:11:45.334Z,97165.09
2022-12-24T17:14:20.030Z,97164.34
2022-12-24T17:16:47.770Z,97163.00
2022-12-24T17:19:15.400Z,97172.56
2022-12-24T17:21:42.951Z,97179.00
2022-12-24T17:24:12.396Z,97176.25
2022-12-24T17:26:39.972Z,97179.75
2022-12-24T17:29:07.603Z,97179.91
2022-12-24T17:31:35.205Z,97186.22
2022-12-24T17:34:02.900Z,97196.81
2022-12-24T17:36:30.466Z,97190.00
2022-12-24T17:38:58.034Z,97196.31
2022-12-24T17:41:26.915Z,97191.59
2022-12-24T17:43:54.479Z,97181.59
2022-12-24T17:46:23.699Z,97185.75
2022-12-24T17:48:52.301Z,97178.59
2022-12-24T17:51:21.422Z,97175.31
2022-12-24T17:53:50.270Z,97175.06
2022-12-24T17:56:18.239Z,97175.59
2022-12-24T17:58:47.518Z,97171.84
2022-12-24T18:01:16.942Z,97163.44
2022-12-24T18:03:44.749Z,97169.06
2022-12-24T18:06:15.190Z,97164.88
2022-12-24T18:08:44.338Z,97175.31
2022-12-24T18:11:13.083Z,97168.16
2022-12-24T18:13:40.710Z,97180.56
2022-12-24T18:16:16.388Z,97184.97
2022-12-24T18:18:43.938Z,97185.50
2022-12-24T18:21:11.791Z,97191.13
2022-12-24T18:23:39.608Z,97187.34
2022-12-24T18:26:07.132Z,97192.66
2022-12-24T18:28:34.684Z,97199.09
2022-12-24T18:31:04.925Z,97193.56
2022-12-24T18:33:34.606Z,97202.66
2022-12-24T18:36:02.316Z,97198.13
2022-12-24T18:38:30.028Z,97199.78
2022-12-24T18:41:03.169Z,97212.47
2022-12-24T18:43:30.713Z,97211.00
2022-12-24T18:45:58.257Z,97211.00
2022-12-24T18:48:25.910Z,97208.63
2022-12-24T18:50:58.866Z,97215.53
2022-12-24T18:53:26.660Z,97218.09
2022-12-24T18:55:54.238Z,97220.22
2022-12-24T18:58:21.834Z,97212.84
2022-12-24T19:00:49.389Z,97211.19
2022-12-24T19:03:17.144Z,97217.91
2022-12-24T19:05:44.906Z,97227.94
2022-12-24T19:08:47.160Z,97228.91
2022-12-24T19:11:01.665Z,97229.38
2022-12-24T19:13:29.487Z,97232.53
2022-12-24T19:15:57.226Z,97229.59
2022-12-24T19:18:24.872Z,97235.38
2022-12-24T19:20:52.446Z,97233.38
2022-12-24T19:23:21.356Z,97233.50
2022-12-24T19:25:50.144Z,97244.69
2022-12-24T19:28:21.271Z,97240.09
2022-12-24T19:30:51.708Z,97252.50
2022-12-24T19:33:19.267Z,97245.00
2022-12-24T19:35:46.807Z,97244.84
2022-12-24T19:38:14.354Z,97241.69
2022-12-24T19:40:43.246Z,97240.72
2022-12-24T19:43:10.793Z,97237.78
2022-12-24T19:45:38.329Z,97235.47
2022-12-24T19:48:06.396Z,97227.28
2022-12-24T19:50:33.948Z,97225.63
2022-12-24T19:53:01.534Z,97226.66
2022-12-24T19:55:29.071Z,97221.03
2022-12-24T19:57:57.937Z,97229.75
2022-12-24T20:00:25.641Z,97237.84
2022-12-24T20:02:53.293Z,97239.59
2022-12-24T20:05:21.078Z,97236.28
2022-12-24T20:07:48.629Z,97244.56
2022-12-24T20:10:16.497Z,97251.28
2022-12-24T20:12:44.072Z,97242.97
2022-12-24T20:15:13.203Z,97239.19
2022-12-24T20:17:40.786Z,97230.50
2022-12-24T20:20:09.357Z,97242.44
2022-12-24T20:22:36.942Z,97249.34
2022-12-24T20:25:04.799Z,97249.63
2022-12-24T20:27:32.297Z,97269.56
2022-12-24T20:29:59.843Z,97279.59
2022-12-24T20:32:29.610Z,97281.41
2022-12-24T20:34:57.229Z,97278.19
2022-12-24T20:37:24.782Z,97270.97
2022-12-24T20:39:52.298Z,97273.91
2022-12-24T20:42:19.853Z,97282.31
2022-12-24T20:44:49.192Z,97276.84
2022-12-24T20:47:16.818Z,97272.38
2022-12-24T20:49:46.010Z,97276.28
2022-12-24T20:52:13.690Z,97275.94
2022-12-24T20:54:41.230Z,97285.31
2022-12-24T20:57:08.829Z,97283.38
2022-12-24T20:59:36.555Z,97279.16
2022-12-24T21:02:04.173Z,97277.06
2022-12-24T21:04:31.830Z,97276.00
2022-12-24T21:07:00.901Z,97274.44
2022-12-24T21:09:28.465Z,97267.97
2022-12-24T21:12:13.742Z,97264.97
2022-12-24T21:14:41.288Z,97277.94
2022-12-24T21:17:15.168Z,97284.19
2022-12-24T21:19:43.352Z,97288.47
2022-12-24T21:22:12.276Z,97294.56
2022-12-24T21:24:40.714Z,97292.59
2022-12-24T21:27:08.307Z,97290.34
2022-12-24T21:29:35.812Z,97290.50
2022-12-24T21:32:03.445Z,97287.72
2022-12-24T21:34:30.964Z,97289.38
2022-12-24T21:36:58.527Z,97295.84
2022-12-24T21:39:27.384Z,97299.16
2022-12-24T21:41:54.881Z,97295.00
2022-12-24T21:44:22.487Z,97293.16
2022-12-24T21:46:50.182Z,97295.78
2022-12-24T21:49:35.329Z,97295.59
2022-12-24T21:52:02.880Z,97295.00
2022-12-24T21:54:31.992Z,97292.38
2022-12-24T21:57:19.016Z,97279.69
2022-12-24T21:59:46.703Z,97281.13
2022-12-24T22:02:15.511Z,97276.00
2022-12-24T22:04:43.825Z,97273.53
2022-12-24T22:07:38.362Z,97272.84
2022-12-24T22:10:26.783Z,97270.75
2022-12-24T22:12:55.078Z,97275.13
2022-12-24T22:15:23.282Z,97266.38
2022-12-24T22:17:50.944Z,97274.88
2022-12-24T22:20:18.678Z,97269.84
2022-12-24T22:22:46.253Z,97274.13
2022-12-24T22:25:15.216Z,97269.84
2022-12-24T22:27:43.053Z,97269.31
2022-12-24T22:30:11.522Z,97272.91
2022-12-24T22:32:39.018Z,97268.81
2022-12-24T22:35:07.098Z,97273.66
2022-12-24T22:37:34.647Z,97281.25
2022-12-24T22:40:02.412Z,97274.06
2022-12-24T22:42:33.805Z,97273.22
2022-12-24T22:45:01.471Z,97284.94
2022-12-24T22:47:28.999Z,97278.63
2022-12-24T22:49:56.660Z,97280.06
2022-12-24T22:52:24.289Z,97280.34
2022-12-24T22:54:51.847Z,97280.13
2022-12-24T22:57:19.384Z,97289.66
2022-12-24T22:59:49.307Z,97284.69
2022-12-24T23:02:22.134Z,97278.38
2022-12-24T23:04:53.492Z,97285.00
2022-12-24T23:07:21.072Z,97282.19
2022-12-24T23:09:48.646Z,97285.00
2022-12-24T23:12:36.550Z,97282.66
2022-12-24T23:15:05.464Z,97289.81
2022-12-24T23:17:33.011Z,97283.59
2022-12-24T23:20:02.324Z,97286.34
2022-12-24T23:22:29.830Z,97287.69
2022-12-24T23:24:57.403Z,97284.16
2022-12-24T23:27:24.996Z,97268.81
2022-12-24T23:29:52.519Z,97269.47
2022-12-24T23:32:22.822Z,97275.69
2022-12-24T23:34:50.397Z,97283.41
2022-12-24T23:37:17.937Z,97275.47
2022-12-24T23:39:45.948Z,97270.81
2022-12-24T23:42:13.497Z,97279.88
2022-12-24T23:44:40.991Z,97291.91
2022-12-24T23:47:08.608Z,97292.72
2022-12-24T23:49:37.607Z,97290.94
2022-12-24T23:52:05.342Z,97295.34
2022-12-24T23:54:32.860Z,97295.34
2022-12-24T23:57:00.373Z,97306.97
2022-12-24T23:59:27.977Z,97310.28
